Easthampton, Massachusetts
Current Conditions -  °F | °C
As of 8:53 AM on Saturday 01 Nov 2014 (Local Time) from KBAF Reporting Station
Broken Clouds Broken Clouds  
Wind Chill: 39°   Ceiling: 9000
Heat Index: 45°   Visibility: 10mi
Dew Point: 33°   Wind: 13mph
Humidity: 63%   Direction: 10°N
Pressure: 29.89"   Gusts: 21mph
Location:  42.27°N, 72.67°W
Report Text: KBAF 011253Z 01011G18KT 10SM BKN090 07/01 A2989 RMK AO2 SLP124 T00720006
Loading
Personal Weather Stations






























Interactive Weather Map
Tropical Storm Tracking
New forecast layout! Learn more

10-Day Weather Forecast

Advertisements
Track Severe Weather on mobile